Terminal Aerodrome Forecast
Issued by NWS

Home | Current Version | Previous Version | Graphics & Text | Print | Product List | Glossary On
Versions: 1 2 3 4 5 6 7 8 9 10 11 12 13 14 15 16 17 18 19 20 21 22 23 24 25 26 27
000
FTUS43 KLOT 201450 AAA
TAFMDW
TAF AMD
KMDW 201450Z 2015/2112 08012KT 6SM -RA OVC012
     FM201515 09012G20KT 4SM RA VCTS SCT006 OVC008CB
     FM201800 10012G18KT 5SM -RA BR OVC007
     FM202100 10011KT 6SM BR VCSH SCT006 BKN010
     FM210000 16010KT P6SM SCT017 BKN035 OVC100
     FM210500 19010KT 5SM -SHRA BKN015 OVC025
     FM210900 23012G20KT P6SM BKN020=

USA.gov is the U.S. government's official web portal to all federal, state and local government web resources and services.